createdAt,value
2023-03-10T00:04:56.428Z,46.86
2023-03-10T00:09:58.111Z,45.17
2023-03-10T00:14:59.784Z,47.09
2023-03-10T00:20:01.334Z,49.22
2023-03-10T00:25:03.479Z,48.07
2023-03-10T00:30:05.625Z,47.67
2023-03-10T00:35:07.672Z,47.80
2023-03-10T00:40:11.084Z,49.27
2023-03-10T00:45:12.740Z,52.78
2023-03-10T00:50:14.316Z,54.29
2023-03-10T00:55:15.978Z,55.48
2023-03-10T01:00:18.158Z,56.38
2023-03-10T01:05:20.258Z,55.51
2023-03-10T01:10:21.834Z,54.41
2023-03-10T01:15:23.565Z,53.52
2023-03-10T01:20:25.220Z,53.47
2023-03-10T01:25:28.159Z,50.57
2023-03-10T01:30:29.739Z,49.67
2023-03-10T01:35:31.635Z,54.21
2023-03-10T01:40:33.546Z,53.23
2023-03-10T01:45:37.749Z,52.72
2023-03-10T01:50:40.096Z,53.08
2023-03-10T01:55:46.629Z,55.29
2023-03-10T02:00:49.952Z,53.83
2023-03-10T02:06:02.583Z,55.56
2023-03-10T02:11:05.396Z,54.28
2023-03-10T02:16:07.666Z,53.10
2023-03-10T02:21:16.180Z,52.06
2023-03-10T02:26:29.961Z,51.66
2023-03-10T02:31:31.809Z,53.58
2023-03-10T02:36:33.478Z,50.30
2023-03-10T02:41:39.800Z,49.17
2023-03-10T02:46:41.386Z,50.90
2023-03-10T02:51:46.240Z,51.90
2023-03-10T02:56:47.856Z,49.20
2023-03-10T03:01:49.488Z,50.94
2023-03-10T03:06:51.080Z,52.40
2023-03-10T03:11:52.660Z,51.66
2023-03-10T03:16:54.307Z,50.27
2023-03-10T03:21:56.041Z,50.60
2023-03-10T03:26:57.869Z,52.45
2023-03-10T03:31:59.622Z,52.97
2023-03-10T03:37:01.194Z,55.25
2023-03-10T03:42:02.826Z,51.96
2023-03-10T03:47:05.322Z,52.20
2023-03-10T03:52:07.491Z,52.37
2023-03-10T03:57:09.144Z,50.35
2023-03-10T04:02:10.811Z,49.76
2023-03-10T04:07:13.060Z,50.18
2023-03-10T04:12:14.661Z,50.67
2023-03-10T04:17:16.854Z,56.83
2023-03-10T04:22:18.477Z,55.08
2023-03-10T04:27:20.561Z,54.08
2023-03-10T04:32:22.198Z,55.71
2023-03-10T04:37:23.840Z,50.46
2023-03-10T04:42:27.542Z,52.83
2023-03-10T04:47:29.102Z,51.78
2023-03-10T04:52:30.670Z,52.74
2023-03-10T04:57:32.268Z,53.10
2023-03-10T05:02:37.663Z,52.76
2023-03-10T05:07:39.354Z,53.73
2023-03-10T05:12:42.295Z,54.01
2023-03-10T05:17:43.889Z,53.04
2023-03-10T05:22:45.542Z,53.80
2023-03-10T05:27:47.138Z,51.29
2023-03-10T05:32:48.994Z,54.78
2023-03-10T05:37:50.832Z,53.97
2023-03-10T05:42:52.372Z,54.41
2023-03-10T05:47:53.983Z,55.40
2023-03-10T05:52:55.594Z,54.56
2023-03-10T05:57:57.258Z,51.50
2023-03-10T06:02:58.999Z,53.42
2023-03-10T06:08:00.619Z,51.61
2023-03-10T06:13:02.378Z,53.50
2023-03-10T06:18:04.034Z,55.46
2023-03-10T06:23:06.780Z,55.98
2023-03-10T06:28:10.743Z,53.11
2023-03-10T06:33:12.516Z,55.48
2023-03-10T06:38:14.319Z,55.97
2023-03-10T06:43:16.572Z,54.60
2023-03-10T06:48:18.201Z,53.18
2023-03-10T06:53:21.260Z,53.84
2023-03-10T06:58:22.853Z,50.97
2023-03-10T07:03:26.354Z,49.79
2023-03-10T07:08:29.181Z,51.00
2023-03-10T07:13:30.752Z,51.12
2023-03-10T07:18:32.900Z,51.37
2023-03-10T07:23:34.493Z,49.10
2023-03-10T07:28:37.239Z,47.90
2023-03-10T07:33:39.512Z,48.01
2023-03-10T07:38:41.577Z,46.62
2023-03-10T07:43:43.532Z,46.67
2023-03-10T07:48:45.183Z,47.55
2023-03-10T07:53:46.815Z,47.51
2023-03-10T07:58:48.746Z,47.93
2023-03-10T08:03:50.513Z,49.20
2023-03-10T08:08:52.593Z,46.69
2023-03-10T08:13:54.264Z,47.97
2023-03-10T08:18:55.916Z,47.29
2023-03-10T08:23:57.503Z,47.33
2023-03-10T08:28:59.071Z,48.28
2023-03-10T08:34:00.768Z,48.67
2023-03-10T08:39:05.510Z,47.21
2023-03-10T08:44:07.159Z,47.46
2023-03-10T08:49:09.831Z,45.72
2023-03-10T08:54:13.814Z,46.02
2023-03-10T08:59:15.732Z,46.83
2023-03-10T09:04:17.711Z,46.45
2023-03-10T09:09:19.352Z,46.67
2023-03-10T09:14:21.096Z,52.78
2023-03-10T09:19:22.697Z,48.37
2023-03-10T09:24:24.979Z,52.09
2023-03-10T09:29:42.277Z,52.88
2023-03-10T09:34:45.483Z,50.33
2023-03-10T09:39:47.197Z,54.70
2023-03-10T09:45:19.152Z,50.82
2023-03-10T09:50:26.732Z,50.55
2023-03-10T09:55:36.645Z,50.11
2023-03-10T10:00:41.217Z,50.39
2023-03-10T10:05:44.952Z,48.56
2023-03-10T10:10:50.899Z,50.74
2023-03-10T10:16:18.388Z,51.14
2023-03-10T10:21:41.748Z,50.35
2023-03-10T10:26:44.001Z,49.79
2023-03-10T10:32:04.862Z,49.91
2023-03-10T10:37:28.609Z,49.71
2023-03-10T10:42:33.546Z,50.94
2023-03-10T10:47:46.318Z,48.42
2023-03-10T10:52:50.609Z,55.18
2023-03-10T10:58:00.440Z,52.53
2023-03-10T11:06:34.896Z,56.29
2023-03-10T11:11:45.543Z,53.64
2023-03-10T11:17:20.967Z,54.28
2023-03-10T11:22:34.867Z,53.10
2023-03-10T11:27:53.541Z,53.01
2023-03-10T11:33:01.171Z,53.74
2023-03-10T11:38:28.953Z,52.68
2023-03-10T11:43:42.743Z,53.31
2023-03-10T11:48:57.559Z,56.00
2023-03-10T11:54:04.374Z,53.75
2023-03-10T11:59:15.776Z,54.24
2023-03-10T12:04:44.652Z,54.41
2023-03-10T12:09:50.669Z,52.20
2023-03-10T12:14:53.915Z,52.63
2023-03-10T12:20:26.247Z,53.70
2023-03-10T12:25:32.697Z,53.66
2023-03-10T12:30:56.531Z,53.28
2023-03-10T12:36:21.226Z,53.38
2023-03-10T12:41:25.800Z,52.79
2023-03-10T12:46:44.537Z,53.70
2023-03-10T12:52:02.040Z,53.14
2023-03-10T12:57:30.830Z,52.23
2023-03-10T13:02:39.169Z,51.47
2023-03-10T13:07:47.524Z,54.39
2023-03-10T13:12:51.602Z,52.62
2023-03-10T13:17:55.327Z,52.16
2023-03-10T13:22:59.180Z,54.09
2023-03-10T13:28:09.862Z,52.14
2023-03-10T13:33:24.017Z,53.81
2023-03-10T13:38:27.359Z,53.76
2023-03-10T13:43:40.540Z,53.01
2023-03-10T13:48:43.261Z,51.26
2023-03-10T13:53:47.204Z,51.92
2023-03-10T13:58:51.543Z,51.68
2023-03-10T14:03:58.987Z,51.98
2023-03-10T14:09:23.371Z,50.91
2023-03-10T14:14:30.590Z,50.50
2023-03-10T14:19:41.583Z,51.67
2023-03-10T14:24:43.210Z,49.90
2023-03-10T14:30:15.632Z,49.85
2023-03-10T14:35:20.293Z,48.88
2023-03-10T14:40:24.745Z,48.58
2023-03-10T14:45:35.169Z,51.66
2023-03-10T14:50:36.932Z,50.52
2023-03-10T14:55:39.541Z,50.32
2023-03-10T15:00:41.182Z,48.83
2023-03-10T15:05:48.737Z,49.58
2023-03-10T15:10:52.556Z,49.66
2023-03-10T15:15:54.484Z,48.83
2023-03-10T15:21:03.419Z,46.00
2023-03-10T15:26:09.600Z,49.53
2023-03-10T15:31:11.492Z,48.57
2023-03-10T15:36:13.112Z,48.69
2023-03-10T15:41:17.014Z,48.38
2023-03-10T15:46:18.714Z,47.05
2023-03-10T15:51:21.091Z,46.72
2023-03-10T15:56:22.987Z,46.27
2023-03-10T16:01:24.884Z,45.13
2023-03-10T16:06:27.631Z,45.15
2023-03-10T16:11:29.356Z,44.14
2023-03-10T16:16:30.969Z,43.90
2023-03-10T16:21:32.661Z,43.77
2023-03-10T16:26:34.367Z,43.90
2023-03-10T16:31:36.012Z,43.88
2023-03-10T16:36:37.797Z,43.80
2023-03-10T16:41:39.378Z,44.84
2023-03-10T16:46:41.171Z,45.07
2023-03-10T16:51:45.111Z,47.73
2023-03-10T16:56:52.300Z,47.11
2023-03-10T17:01:53.937Z,46.87
2023-03-10T17:06:55.631Z,50.72
2023-03-10T17:11:57.382Z,51.82
2023-03-10T17:17:00.339Z,50.83
2023-03-10T17:22:01.979Z,49.97
2023-03-10T17:27:03.882Z,48.16
2023-03-10T17:32:05.847Z,47.85
2023-03-10T17:37:07.537Z,47.56
2023-03-10T17:42:09.136Z,48.11
2023-03-10T17:47:12.229Z,47.65
2023-03-10T17:52:13.860Z,47.28
2023-03-10T17:57:15.542Z,45.78
2023-03-10T18:02:17.179Z,47.16
2023-03-10T18:07:18.887Z,45.49
2023-03-10T18:12:20.555Z,47.21
2023-03-10T18:17:22.236Z,45.21
2023-03-10T18:22:23.832Z,47.75
2023-03-10T18:27:25.470Z,47.70
2023-03-10T18:32:27.705Z,47.38
2023-03-10T18:37:32.337Z,49.86
2023-03-10T18:42:33.978Z,49.18
2023-03-10T18:47:35.621Z,45.32
2023-03-10T18:52:37.263Z,45.30
2023-03-10T18:57:39.377Z,45.23
2023-03-10T19:02:44.359Z,46.75
2023-03-10T19:07:46.077Z,45.77
2023-03-10T19:12:47.898Z,46.21
2023-03-10T19:17:49.509Z,46.14
2023-03-10T19:22:51.261Z,47.36
2023-03-10T19:27:53.030Z,46.11
2023-03-10T19:32:54.714Z,44.62
2023-03-10T19:37:56.478Z,43.69
2023-03-10T19:42:58.152Z,44.47
2023-03-10T19:47:59.780Z,43.66
2023-03-10T19:53:01.372Z,43.72
2023-03-10T19:58:02.911Z,43.41
2023-03-10T20:03:04.684Z,44.68
2023-03-10T20:08:06.468Z,44.36
2023-03-10T20:13:08.639Z,45.48
